createdAt,value
2022-12-24T00:01:45.375Z,5.06
2022-12-24T00:04:30.957Z,5.15
2022-12-24T00:07:16.215Z,5.30
2022-12-24T00:10:01.797Z,5.37
2022-12-24T00:12:47.060Z,5.38
2022-12-24T00:15:32.607Z,5.39
2022-12-24T00:18:18.082Z,5.43
2022-12-24T00:21:04.173Z,5.45
2022-12-24T00:23:49.908Z,5.47
2022-12-24T00:26:35.965Z,5.42
2022-12-24T00:29:21.407Z,5.39
2022-12-24T00:32:10.428Z,5.39
2022-12-24T00:34:55.775Z,5.44
2022-12-24T00:37:41.053Z,5.47
2022-12-24T00:40:26.353Z,5.55
2022-12-24T00:43:11.635Z,5.55
2022-12-24T00:45:58.388Z,5.55
2022-12-24T00:48:43.939Z,5.60
2022-12-24T00:51:30.080Z,5.64
2022-12-24T00:54:15.961Z,5.61
2022-12-24T00:57:01.229Z,5.58
2022-12-24T00:59:46.580Z,5.52
2022-12-24T01:02:31.909Z,5.54
2022-12-24T01:05:20.845Z,5.52
2022-12-24T01:08:06.217Z,5.55
2022-12-24T01:10:51.495Z,5.55
2022-12-24T01:13:37.813Z,5.48
2022-12-24T01:16:23.233Z,5.51
2022-12-24T01:19:09.065Z,5.52
2022-12-24T01:21:54.570Z,5.48
2022-12-24T01:24:41.590Z,5.46
2022-12-24T01:27:27.421Z,5.46
2022-12-24T01:30:14.961Z,5.42
2022-12-24T01:33:00.341Z,5.43
2022-12-24T01:35:46.134Z,5.44
2022-12-24T01:38:32.038Z,5.45
2022-12-24T01:41:37.793Z,5.42
2022-12-24T01:44:33.135Z,5.35
2022-12-24T01:47:25.936Z,5.32
2022-12-24T01:50:17.966Z,5.29
2022-12-24T01:53:06.655Z,5.28
2022-12-24T01:55:53.227Z,5.30
2022-12-24T01:58:43.375Z,5.29
2022-12-24T02:01:28.945Z,5.30
2022-12-24T02:04:37.862Z,5.19
2022-12-24T02:07:24.094Z,5.16
2022-12-24T02:10:13.035Z,5.12
2022-12-24T02:13:00.432Z,5.12
2022-12-24T02:15:55.011Z,5.15
2022-12-24T02:18:49.345Z,5.13
2022-12-24T02:21:51.188Z,5.09
2022-12-24T02:25:01.717Z,5.06
2022-12-24T02:28:19.895Z,5.02
2022-12-24T02:31:17.673Z,5.01
2022-12-24T02:34:29.169Z,4.98
2022-12-24T02:37:26.158Z,4.92
2022-12-24T02:40:29.708Z,4.84
2022-12-24T02:43:20.244Z,4.78
2022-12-24T02:46:25.638Z,4.77
2022-12-24T02:49:11.789Z,4.65
2022-12-24T02:51:57.137Z,4.67
2022-12-24T02:54:42.512Z,4.73
2022-12-24T02:57:38.275Z,4.82
2022-12-24T03:00:24.773Z,4.89
2022-12-24T03:03:10.574Z,4.92
2022-12-24T03:06:17.358Z,4.97
2022-12-24T03:09:14.818Z,4.95
2022-12-24T03:12:13.851Z,4.94
2022-12-24T03:15:01.205Z,4.86
2022-12-24T03:17:49.471Z,4.86
2022-12-24T03:20:44.321Z,4.81
2022-12-24T03:23:29.916Z,4.87
2022-12-24T03:26:18.332Z,4.87
2022-12-24T03:29:08.288Z,4.83
2022-12-24T03:32:01.488Z,4.76
2022-12-24T03:34:46.996Z,4.76
2022-12-24T03:37:32.295Z,4.83
2022-12-24T03:40:17.896Z,4.88
2022-12-24T03:43:03.588Z,4.91
2022-12-24T03:45:49.032Z,5.03
2022-12-24T03:48:35.874Z,5.00
2022-12-24T03:51:23.723Z,4.94
2022-12-24T03:54:09.125Z,4.92
2022-12-24T03:56:54.521Z,4.90
2022-12-24T03:59:40.222Z,5.00
2022-12-24T04:02:26.001Z,5.06
2022-12-24T04:05:18.050Z,5.16
2022-12-24T04:08:03.762Z,5.22
2022-12-24T04:10:49.311Z,5.26
2022-12-24T04:13:34.684Z,5.30
2022-12-24T04:16:20.653Z,5.30
2022-12-24T04:19:06.377Z,5.27
2022-12-24T04:21:51.689Z,5.31
2022-12-24T04:24:37.008Z,5.34
2022-12-24T04:27:28.260Z,5.35
2022-12-24T04:30:15.821Z,5.42
2022-12-24T04:33:01.567Z,5.37
2022-12-24T04:35:46.881Z,5.28
2022-12-24T04:38:33.614Z,5.35
2022-12-24T04:41:24.435Z,5.43
2022-12-24T04:44:10.674Z,5.52
2022-12-24T04:46:56.184Z,5.59
2022-12-24T04:49:41.629Z,5.59
2022-12-24T04:52:27.033Z,5.57
2022-12-24T04:55:12.765Z,5.50
2022-12-24T04:57:58.069Z,5.55
2022-12-24T05:00:43.308Z,5.61
2022-12-24T05:03:29.193Z,5.62
2022-12-24T05:06:18.460Z,5.49
2022-12-24T05:09:04.421Z,5.42
2022-12-24T05:11:50.074Z,5.35
2022-12-24T05:14:35.557Z,5.33
2022-12-24T05:17:21.041Z,5.41
2022-12-24T05:20:07.283Z,5.44
2022-12-24T05:23:11.107Z,5.41
2022-12-24T05:26:15.222Z,5.35
2022-12-24T05:29:02.365Z,5.31
2022-12-24T05:31:48.005Z,5.18
2022-12-24T05:34:33.489Z,5.08
2022-12-24T05:37:19.120Z,5.16
2022-12-24T05:40:04.809Z,5.18
2022-12-24T05:42:50.816Z,5.15
2022-12-24T05:45:36.387Z,5.06
2022-12-24T05:48:21.908Z,4.99
2022-12-24T05:51:09.276Z,5.04
2022-12-24T05:53:54.710Z,5.11
2022-12-24T05:56:40.159Z,5.04
2022-12-24T05:59:25.809Z,5.20
2022-12-24T06:02:11.005Z,5.26
2022-12-24T06:04:56.357Z,5.18
2022-12-24T06:07:41.648Z,5.08
2022-12-24T06:10:27.021Z,4.96
2022-12-24T06:13:12.202Z,4.84
2022-12-24T06:15:59.856Z,4.82
2022-12-24T06:18:45.977Z,4.81
2022-12-24T06:21:31.159Z,4.76
2022-12-24T06:24:16.633Z,4.72
2022-12-24T06:27:01.978Z,4.66
2022-12-24T06:29:47.235Z,4.56
2022-12-24T06:32:32.524Z,4.47
2022-12-24T06:35:18.003Z,4.33
2022-12-24T06:38:03.285Z,4.21
2022-12-24T06:40:48.938Z,4.10
2022-12-24T06:43:35.386Z,4.01
2022-12-24T06:46:21.829Z,3.87
2022-12-24T06:49:07.662Z,3.79
2022-12-24T06:51:52.999Z,3.73
2022-12-24T06:54:38.349Z,3.68
2022-12-24T06:57:23.622Z,3.72
2022-12-24T07:00:11.161Z,3.60
2022-12-24T07:02:56.821Z,3.53
2022-12-24T07:05:42.478Z,3.48
2022-12-24T07:08:28.162Z,3.39
2022-12-24T07:11:13.887Z,3.34
2022-12-24T07:13:59.609Z,3.35
2022-12-24T07:16:45.112Z,3.34
2022-12-24T07:19:30.718Z,3.49
2022-12-24T07:22:16.151Z,3.44
2022-12-24T07:25:01.408Z,3.41
2022-12-24T07:27:46.872Z,3.36
2022-12-24T07:30:32.248Z,3.30
2022-12-24T07:33:17.639Z,3.31
2022-12-24T07:36:05.987Z,3.26
2022-12-24T07:38:51.464Z,3.26
2022-12-24T07:41:41.785Z,3.17
2022-12-24T07:44:27.547Z,3.25
2022-12-24T07:47:12.957Z,3.31
2022-12-24T07:49:58.370Z,3.38
2022-12-24T07:52:43.686Z,3.48
2022-12-24T07:55:29.060Z,3.64
2022-12-24T07:58:14.501Z,3.79
2022-12-24T08:01:00.538Z,3.97
2022-12-24T08:03:46.450Z,4.05
2022-12-24T08:06:32.349Z,4.20
2022-12-24T08:09:17.655Z,4.41
2022-12-24T08:12:04.316Z,4.42
2022-12-24T08:14:50.096Z,4.54
2022-12-24T08:17:35.462Z,4.57
2022-12-24T08:20:20.909Z,4.54
2022-12-24T08:23:07.297Z,4.62
2022-12-24T08:25:52.999Z,4.72
2022-12-24T08:28:38.588Z,4.72
2022-12-24T08:31:24.296Z,4.78
2022-12-24T08:34:11.731Z,4.85
2022-12-24T08:36:58.103Z,4.86
2022-12-24T08:39:43.634Z,5.00
2022-12-24T08:42:29.039Z,5.02
2022-12-24T08:45:14.866Z,5.00
2022-12-24T08:48:00.679Z,4.94
2022-12-24T08:50:46.921Z,4.97
2022-12-24T08:53:32.340Z,5.01
2022-12-24T08:56:17.933Z,5.26
2022-12-24T08:59:03.191Z,5.38
2022-12-24T09:01:48.833Z,5.60
2022-12-24T09:04:34.378Z,5.78
2022-12-24T09:07:19.865Z,5.91
2022-12-24T09:10:07.129Z,5.95
2022-12-24T09:12:52.833Z,5.99
2022-12-24T09:15:38.394Z,5.95
2022-12-24T09:18:25.447Z,5.94
2022-12-24T09:21:16.562Z,5.90
2022-12-24T09:24:04.727Z,6.05
2022-12-24T09:26:55.582Z,6.16
2022-12-24T09:29:43.252Z,6.23
2022-12-24T09:32:28.721Z,6.28
2022-12-24T09:35:14.143Z,6.37
2022-12-24T09:38:05.537Z,6.49
2022-12-24T09:40:52.423Z,6.59
2022-12-24T09:43:39.363Z,6.70
2022-12-24T09:46:34.507Z,6.80
2022-12-24T09:49:27.322Z,6.90
2022-12-24T09:52:19.044Z,6.93
2022-12-24T09:55:20.737Z,6.97
2022-12-24T09:58:07.204Z,7.03
2022-12-24T10:00:54.847Z,7.09
2022-12-24T10:03:41.082Z,7.15
2022-12-24T10:06:37.686Z,7.25
2022-12-24T10:09:42.918Z,7.35
2022-12-24T10:12:56.560Z,7.44
2022-12-24T10:16:03.751Z,7.46
2022-12-24T10:19:13.351Z,7.45
2022-12-24T10:22:16.270Z,7.48
2022-12-24T10:25:19.882Z,7.53
2022-12-24T10:28:15.363Z,7.60
2022-12-24T10:31:04.692Z,7.65
2022-12-24T10:33:57.872Z,7.73
2022-12-24T10:36:43.663Z,7.85
2022-12-24T10:39:29.143Z,7.99
2022-12-24T10:42:17.115Z,8.13
2022-12-24T10:45:06.990Z,8.27
2022-12-24T10:48:01.933Z,8.38
2022-12-24T10:51:06.342Z,8.51
2022-12-24T10:54:03.120Z,8.66
2022-12-24T10:56:52.578Z,8.85
2022-12-24T10:59:52.595Z,9.04
2022-12-24T11:02:40.107Z,9.21
2022-12-24T11:05:34.852Z,9.37
2022-12-24T11:08:20.554Z,9.53
2022-12-24T11:11:12.856Z,9.66
2022-12-24T11:13:59.005Z,9.82
2022-12-24T11:16:55.885Z,9.90
2022-12-24T11:19:41.177Z,9.96
2022-12-24T11:22:29.765Z,10.05
2022-12-24T11:25:24.781Z,10.08
2022-12-24T11:28:21.847Z,10.09
2022-12-24T11:31:20.011Z,10.05
2022-12-24T11:34:23.791Z,10.02
2022-12-24T11:37:15.519Z,9.95
2022-12-24T11:40:02.504Z,9.87
2022-12-24T11:42:53.227Z,9.83
2022-12-24T11:45:38.704Z,9.77
2022-12-24T11:48:33.129Z,9.71
2022-12-24T11:51:25.275Z,9.63
2022-12-24T11:54:17.014Z,9.57
2022-12-24T11:57:04.136Z,9.49
2022-12-24T11:59:50.324Z,9.42
2022-12-24T12:02:40.273Z,9.34
2022-12-24T12:05:30.561Z,9.26
2022-12-24T12:08:20.602Z,9.20
2022-12-24T12:11:14.308Z,9.14
2022-12-24T12:14:01.715Z,9.10
2022-12-24T12:17:16.561Z,9.03
2022-12-24T12:20:10.327Z,8.99
2022-12-24T12:23:28.414Z,8.99
2022-12-24T12:26:25.740Z,9.00
2022-12-24T12:29:10.872Z,8.99
2022-12-24T12:32:07.935Z,8.95
2022-12-24T12:34:56.159Z,8.93
2022-12-24T12:37:46.679Z,8.89
2022-12-24T12:40:50.679Z,8.82
2022-12-24T12:43:50.018Z,8.77
2022-12-24T12:46:44.100Z,8.75
2022-12-24T12:49:45.006Z,8.71
2022-12-24T12:52:58.435Z,8.67
2022-12-24T12:56:02.913Z,8.64
2022-12-24T12:59:14.752Z,8.59
2022-12-24T13:02:00.087Z,8.57
2022-12-24T13:05:19.655Z,8.52
2022-12-24T13:08:17.589Z,8.47
2022-12-24T13:11:18.899Z,8.43
2022-12-24T13:14:26.243Z,8.43
2022-12-24T13:17:42.686Z,7.99
2022-12-24T13:20:33.951Z,7.28
2022-12-24T13:23:25.704Z,6.76
2022-12-24T13:26:13.645Z,6.55
2022-12-24T13:29:31.696Z,6.40
2022-12-24T13:32:20.496Z,6.32
2022-12-24T13:35:21.502Z,6.28
2022-12-24T13:38:29.692Z,6.25
2022-12-24T13:41:39.942Z,6.26
2022-12-24T13:44:33.168Z,6.29
2022-12-24T13:47:31.648Z,6.28
2022-12-24T13:50:35.302Z,6.33
2022-12-24T13:53:28.688Z,6.39
2022-12-24T13:56:14.466Z,6.45
2022-12-24T13:59:39.131Z,6.47
2022-12-24T14:02:26.336Z,6.49
2022-12-24T14:05:24.222Z,6.48
2022-12-24T14:08:13.736Z,6.48
2022-12-24T14:10:59.158Z,6.47
2022-12-24T14:13:45.002Z,6.46
2022-12-24T14:16:41.701Z,6.46
2022-12-24T14:19:42.683Z,6.45
2022-12-24T14:22:37.481Z,6.46
2022-12-24T14:25:24.190Z,6.47
2022-12-24T14:28:19.382Z,6.47
2022-12-24T14:31:06.781Z,6.50
2022-12-24T14:33:53.390Z,6.50
2022-12-24T14:36:40.700Z,6.49
2022-12-24T14:39:36.473Z,6.47
2022-12-24T14:42:51.565Z,6.46
2022-12-24T14:46:07.680Z,6.47
2022-12-24T14:49:28.614Z,6.48
2022-12-24T14:52:54.640Z,6.48
2022-12-24T14:55:36.781Z,6.45
2022-12-24T14:58:27.048Z,6.43
2022-12-24T15:01:24.801Z,6.40
2022-12-24T15:04:10.657Z,6.38
2022-12-24T15:06:57.811Z,6.38
2022-12-24T15:09:43.835Z,6.38
2022-12-24T15:12:30.518Z,6.36
2022-12-24T15:15:18.510Z,6.38
2022-12-24T15:18:05.196Z,6.37
2022-12-24T15:20:58.533Z,6.35
2022-12-24T15:23:52.201Z,6.35
2022-12-24T15:26:37.834Z,6.35
2022-12-24T15:29:26.171Z,6.35
2022-12-24T15:32:17.009Z,6.33
2022-12-24T15:35:02.442Z,6.31
2022-12-24T15:37:47.806Z,6.27
2022-12-24T15:40:34.954Z,6.24
2022-12-24T15:43:21.063Z,6.23
2022-12-24T15:46:07.060Z,6.24
2022-12-24T15:48:55.341Z,6.22
2022-12-24T15:51:41.129Z,6.03
2022-12-24T15:54:26.911Z,5.90
2022-12-24T15:57:14.925Z,5.83
2022-12-24T16:00:02.341Z,5.80
2022-12-24T16:02:50.514Z,5.81
2022-12-24T16:05:37.797Z,5.81
2022-12-24T16:08:24.666Z,5.81
2022-12-24T16:11:18.921Z,5.80
2022-12-24T16:14:11.355Z,5.80
2022-12-24T16:16:58.555Z,5.76
2022-12-24T16:19:49.090Z,5.72
2022-12-24T16:22:39.793Z,5.72
2022-12-24T16:25:27.769Z,5.73
2022-12-24T16:28:20.269Z,5.75
2022-12-24T16:31:07.851Z,5.75
2022-12-24T16:33:55.816Z,5.73
2022-12-24T16:36:45.293Z,5.72
2022-12-24T16:39:33.404Z,5.73
2022-12-24T16:42:37.778Z,5.74
2022-12-24T16:45:23.343Z,5.73
2022-12-24T16:48:09.108Z,5.73
2022-12-24T16:50:54.662Z,5.70
2022-12-24T16:53:40.273Z,5.65
2022-12-24T16:56:25.593Z,5.58
2022-12-24T16:59:17.622Z,5.51
2022-12-24T17:02:03.344Z,5.52
2022-12-24T17:04:50.196Z,5.56
2022-12-24T17:07:39.697Z,5.61
2022-12-24T17:10:28.887Z,5.69
2022-12-24T17:13:14.530Z,5.78
2022-12-24T17:16:02.418Z,5.83
2022-12-24T17:18:49.196Z,5.79
2022-12-24T17:21:35.110Z,5.79
2022-12-24T17:24:20.810Z,5.80
2022-12-24T17:27:06.090Z,5.84
2022-12-24T17:29:51.865Z,5.87
2022-12-24T17:32:37.623Z,5.88
2022-12-24T17:35:23.148Z,5.90
2022-12-24T17:38:09.174Z,5.91
2022-12-24T17:41:11.890Z,5.89
2022-12-24T17:43:58.972Z,5.82
2022-12-24T17:46:44.669Z,5.69
2022-12-24T17:49:29.915Z,5.56
2022-12-24T17:52:15.324Z,5.46
2022-12-24T17:55:00.771Z,5.39
2022-12-24T17:57:46.266Z,5.46
2022-12-24T18:00:33.474Z,5.52
2022-12-24T18:03:19.133Z,5.51
2022-12-24T18:06:06.837Z,5.42
2022-12-24T18:08:52.836Z,5.33
2022-12-24T18:11:38.401Z,5.28
2022-12-24T18:14:23.972Z,5.15
2022-12-24T18:17:09.696Z,5.05
2022-12-24T18:19:54.973Z,4.95
2022-12-24T18:22:40.490Z,4.96
2022-12-24T18:25:25.850Z,4.98
2022-12-24T18:28:11.465Z,4.96
2022-12-24T18:31:01.919Z,4.89
2022-12-24T18:33:49.176Z,4.86
2022-12-24T18:36:35.602Z,4.95
2022-12-24T18:39:21.127Z,4.93
2022-12-24T18:42:06.424Z,4.85
2022-12-24T18:44:51.923Z,4.73
2022-12-24T18:47:37.352Z,4.64
2022-12-24T18:50:22.605Z,4.61
2022-12-24T18:53:08.246Z,4.62
2022-12-24T18:55:53.826Z,4.75
2022-12-24T18:58:41.206Z,4.78
2022-12-24T19:01:30.438Z,4.81
2022-12-24T19:04:15.885Z,4.86
2022-12-24T19:07:01.598Z,4.93
2022-12-24T19:09:48.497Z,4.97
2022-12-24T19:12:34.314Z,5.02
2022-12-24T19:15:19.890Z,5.06
2022-12-24T19:18:05.384Z,5.04
2022-12-24T19:20:50.640Z,5.07
2022-12-24T19:23:36.783Z,5.06
2022-12-24T19:26:22.483Z,4.98
2022-12-24T19:29:08.015Z,4.93
2022-12-24T19:31:53.641Z,4.96
2022-12-24T19:34:38.679Z,4.94
2022-12-24T19:37:24.161Z,4.82
2022-12-24T19:40:10.281Z,4.68
2022-12-24T19:42:56.071Z,4.58
2022-12-24T19:45:41.736Z,4.49
2022-12-24T19:48:26.852Z,4.40
2022-12-24T19:51:12.608Z,4.33
2022-12-24T19:53:59.948Z,4.24
2022-12-24T19:56:45.200Z,4.20
2022-12-24T19:59:30.699Z,4.35
2022-12-24T20:02:16.239Z,4.51
2022-12-24T20:05:02.433Z,4.84
2022-12-24T20:07:48.089Z,4.90
2022-12-24T20:10:41.895Z,4.91
2022-12-24T20:13:27.159Z,4.89
2022-12-24T20:16:19.431Z,4.87
2022-12-24T20:19:06.842Z,4.83
2022-12-24T20:21:52.218Z,4.86
2022-12-24T20:24:37.720Z,4.89
2022-12-24T20:27:25.590Z,4.97
2022-12-24T20:30:11.219Z,4.97
2022-12-24T20:32:57.847Z,4.91
2022-12-24T20:35:43.193Z,4.86
2022-12-24T20:38:28.690Z,4.78
2022-12-24T20:41:16.619Z,4.72
2022-12-24T20:44:02.379Z,4.69
2022-12-24T20:46:47.688Z,4.77
2022-12-24T20:49:33.028Z,4.81
2022-12-24T20:52:18.340Z,4.87
2022-12-24T20:55:04.112Z,4.83
2022-12-24T20:57:50.495Z,4.79
2022-12-24T21:00:35.785Z,4.82
2022-12-24T21:03:21.314Z,4.86
2022-12-24T21:06:07.556Z,4.78
2022-12-24T21:08:53.950Z,4.75
2022-12-24T21:11:51.521Z,4.79
2022-12-24T21:14:37.433Z,4.87
2022-12-24T21:17:23.282Z,4.91
2022-12-24T21:20:09.042Z,4.82
2022-12-24T21:23:00.440Z,4.78
2022-12-24T21:25:56.687Z,4.74
2022-12-24T21:28:43.960Z,4.80
2022-12-24T21:31:29.559Z,4.79
2022-12-24T21:34:15.255Z,4.76
2022-12-24T21:37:00.395Z,4.68
2022-12-24T21:39:45.750Z,4.60
2022-12-24T21:42:36.036Z,4.51
2022-12-24T21:45:21.374Z,4.33
2022-12-24T21:48:26.793Z,4.28
2022-12-24T21:51:13.280Z,4.15
2022-12-24T21:54:17.684Z,4.08
2022-12-24T21:57:23.917Z,4.26
2022-12-24T22:00:22.882Z,4.34
2022-12-24T22:03:08.286Z,4.35
2022-12-24T22:05:53.969Z,4.33
2022-12-24T22:08:57.683Z,4.38
2022-12-24T22:11:54.270Z,4.38
2022-12-24T22:14:40.304Z,4.38
2022-12-24T22:17:27.157Z,4.41
2022-12-24T22:20:12.777Z,4.40
2022-12-24T22:22:58.100Z,4.43
2022-12-24T22:25:47.380Z,4.50
2022-12-24T22:28:32.908Z,4.44
2022-12-24T22:31:23.337Z,4.46
2022-12-24T22:34:09.100Z,4.43
2022-12-24T22:36:54.452Z,4.43
2022-12-24T22:39:40.043Z,4.39
2022-12-24T22:42:25.352Z,4.42
2022-12-24T22:45:15.777Z,4.56
2022-12-24T22:48:04.423Z,4.74
2022-12-24T22:50:50.047Z,4.88
2022-12-24T22:53:36.482Z,5.01
2022-12-24T22:56:23.276Z,5.03
2022-12-24T22:59:12.458Z,5.04
2022-12-24T23:01:58.290Z,4.96
2022-12-24T23:04:44.310Z,4.99
2022-12-24T23:07:29.841Z,5.00
2022-12-24T23:10:15.070Z,5.12
2022-12-24T23:13:20.055Z,5.13
2022-12-24T23:16:07.110Z,5.04
2022-12-24T23:18:53.588Z,4.99
2022-12-24T23:21:39.304Z,4.97
2022-12-24T23:24:24.849Z,4.94
2022-12-24T23:27:10.305Z,4.87
2022-12-24T23:29:55.847Z,4.81
2022-12-24T23:32:41.630Z,4.77
2022-12-24T23:35:27.013Z,4.75
2022-12-24T23:38:12.386Z,4.78
2022-12-24T23:41:00.265Z,4.76
2022-12-24T23:43:47.201Z,4.77
2022-12-24T23:46:32.737Z,4.85
2022-12-24T23:49:17.949Z,4.95
2022-12-24T23:52:04.300Z,5.08
2022-12-24T23:54:49.638Z,5.17
2022-12-24T23:57:35.035Z,5.25
